sensor_id;sensor_type;location;lat;lon;timestamp;temperature;humidity
32614;DHT22;19031;51.400;6.770;2022-07-25T00:01:40;21.30;25.60
32614;DHT22;19031;51.400;6.770;2022-07-25T00:04:06;21.20;25.50
32614;DHT22;19031;51.400;6.770;2022-07-25T00:06:34;21.20;19.20
32614;DHT22;19031;51.400;6.770;2022-07-25T00:09:00;21.30;9.50
32614;DHT22;19031;51.400;6.770;2022-07-25T00:11:26;21.30;4.10
32614;DHT22;19031;51.400;6.770;2022-07-25T00:13:52;21.40;5.40
32614;DHT22;19031;51.400;6.770;2022-07-25T00:16:18;21.30;3.60
32614;DHT22;19031;51.400;6.770;2022-07-25T00:18:43;21.40;2.60
32614;DHT22;19031;51.400;6.770;2022-07-25T00:21:09;21.40;1.00
32614;DHT22;19031;51.400;6.770;2022-07-25T00:23:35;21.40;1.00
32614;DHT22;19031;51.400;6.770;2022-07-25T00:26:00;21.40;1.00
32614;DHT22;19031;51.400;6.770;2022-07-25T00:28:26;21.40;1.00
32614;DHT22;19031;51.400;6.770;2022-07-25T00:30:52;21.40;1.00
32614;DHT22;19031;51.400;6.770;2022-07-25T00:33:17;21.40;1.00
32614;DHT22;19031;51.400;6.770;2022-07-25T00:35:43;21.40;1.00
32614;DHT22;19031;51.400;6.770;2022-07-25T00:38:09;21.40;1.00
32614;DHT22;19031;51.400;6.770;2022-07-25T00:40:35;21.40;1.00
32614;DHT22;19031;51.400;6.770;2022-07-25T00:43:00;21.40;1.00
32614;DHT22;19031;51.400;6.770;2022-07-25T00:45:26;21.40;1.00
32614;DHT22;19031;51.400;6.770;2022-07-25T00:47:52;21.30;1.00
32614;DHT22;19031;51.400;6.770;2022-07-25T00:50:18;21.30;1.00
32614;DHT22;19031;51.400;6.770;2022-07-25T00:52:44;21.30;1.00
32614;DHT22;19031;51.400;6.770;2022-07-25T00:55:10;21.30;1.00
32614;DHT22;19031;51.400;6.770;2022-07-25T00:57:36;21.30;1.00
32614;DHT22;19031;51.400;6.770;2022-07-25T01:00:05;21.20;1.00
32614;DHT22;19031;51.400;6.770;2022-07-25T01:02:31;21.10;1.00
32614;DHT22;19031;51.400;6.770;2022-07-25T01:04:57;21.20;1.00
32614;DHT22;19031;51.400;6.770;2022-07-25T01:07:23;21.10;1.00
32614;DHT22;19031;51.400;6.770;2022-07-25T01:09:49;21.00;1.00
32614;DHT22;19031;51.400;6.770;2022-07-25T01:12:15;20.90;1.00
32614;DHT22;19031;51.400;6.770;2022-07-25T01:14:41;20.90;4.00
32614;DHT22;19031;51.400;6.770;2022-07-25T01:17:06;20.90;4.90
32614;DHT22;19031;51.400;6.770;2022-07-25T01:19:32;20.80;9.80
32614;DHT22;19031;51.400;6.770;2022-07-25T01:21:57;20.80;11.20
32614;DHT22;19031;51.400;6.770;2022-07-25T01:24:23;20.70;14.30
32614;DHT22;19031;51.400;6.770;2022-07-25T01:26:49;20.60;17.20
32614;DHT22;19031;51.400;6.770;2022-07-25T01:29:14;20.60;22.20
32614;DHT22;19031;51.400;6.770;2022-07-25T01:31:40;20.60;15.40
32614;DHT22;19031;51.400;6.770;2022-07-25T01:34:05;20.60;14.50
32614;DHT22;19031;51.400;6.770;2022-07-25T01:36:31;20.50;17.70
32614;DHT22;19031;51.400;6.770;2022-07-25T01:38:57;20.50;19.70
32614;DHT22;19031;51.400;6.770;2022-07-25T01:41:22;20.30;26.40
32614;DHT22;19031;51.400;6.770;2022-07-25T01:43:48;20.30;26.20
32614;DHT22;19031;51.400;6.770;2022-07-25T01:46:14;20.30;19.90
32614;DHT22;19031;51.400;6.770;2022-07-25T01:48:39;20.20;30.90
32614;DHT22;19031;51.400;6.770;2022-07-25T01:51:05;20.20;25.90
32614;DHT22;19031;51.400;6.770;2022-07-25T01:53:31;20.10;29.80
32614;DHT22;19031;51.400;6.770;2022-07-25T01:55:56;20.10;33.10
32614;DHT22;19031;51.400;6.770;2022-07-25T01:58:22;20.00;28.90
32614;DHT22;19031;51.400;6.770;2022-07-25T02:00:48;20.00;41.50
32614;DHT22;19031;51.400;6.770;2022-07-25T02:03:13;19.90;36.70
32614;DHT22;19031;51.400;6.770;2022-07-25T02:05:55;19.90;35.70
32614;DHT22;19031;51.400;6.770;2022-07-25T02:08:21;19.90;35.70
32614;DHT22;19031;51.400;6.770;2022-07-25T02:10:47;19.90;33.60
32614;DHT22;19031;51.400;6.770;2022-07-25T02:13:13;19.80;34.30
32614;DHT22;19031;51.400;6.770;2022-07-25T02:15:39;19.80;34.40
32614;DHT22;19031;51.400;6.770;2022-07-25T02:18:04;19.80;31.00
32614;DHT22;19031;51.400;6.770;2022-07-25T02:20:30;19.80;36.30
32614;DHT22;19031;51.400;6.770;2022-07-25T02:22:55;19.70;34.30
32614;DHT22;19031;51.400;6.770;2022-07-25T02:25:21;19.70;41.70
32614;DHT22;19031;51.400;6.770;2022-07-25T02:27:47;19.70;40.90
32614;DHT22;19031;51.400;6.770;2022-07-25T02:30:13;19.70;41.50
32614;DHT22;19031;51.400;6.770;2022-07-25T02:32:38;19.60;48.60
32614;DHT22;19031;51.400;6.770;2022-07-25T02:35:05;19.60;50.00
32614;DHT22;19031;51.400;6.770;2022-07-25T02:37:31;19.60;47.80
32614;DHT22;19031;51.400;6.770;2022-07-25T02:39:57;19.60;44.30
32614;DHT22;19031;51.400;6.770;2022-07-25T02:42:23;19.50;51.20
32614;DHT22;19031;51.400;6.770;2022-07-25T02:44:48;19.50;51.00
32614;DHT22;19031;51.400;6.770;2022-07-25T02:47:14;19.50;47.40
32614;DHT22;19031;51.400;6.770;2022-07-25T02:49:39;19.50;44.10
32614;DHT22;19031;51.400;6.770;2022-07-25T02:52:05;19.40;46.50
32614;DHT22;19031;51.400;6.770;2022-07-25T02:54:31;19.30;48.50
32614;DHT22;19031;51.400;6.770;2022-07-25T02:56:56;19.40;46.90
32614;DHT22;19031;51.400;6.770;2022-07-25T02:59:22;19.30;49.20
32614;DHT22;19031;51.400;6.770;2022-07-25T03:01:48;19.40;47.60
32614;DHT22;19031;51.400;6.770;2022-07-25T03:04:13;19.40;48.30
32614;DHT22;19031;51.400;6.770;2022-07-25T03:06:39;19.30;48.60
32614;DHT22;19031;51.400;6.770;2022-07-25T03:09:05;19.30;48.80
32614;DHT22;19031;51.400;6.770;2022-07-25T03:11:30;19.40;46.30
32614;DHT22;19031;51.400;6.770;2022-07-25T03:13:56;19.30;49.80
32614;DHT22;19031;51.400;6.770;2022-07-25T03:16:22;19.40;51.00
32614;DHT22;19031;51.400;6.770;2022-07-25T03:18:47;19.30;48.80
32614;DHT22;19031;51.400;6.770;2022-07-25T03:21:13;19.30;47.80
32614;DHT22;19031;51.400;6.770;2022-07-25T03:23:39;19.40;48.10
32614;DHT22;19031;51.400;6.770;2022-07-25T03:26:05;19.30;46.70
32614;DHT22;19031;51.400;6.770;2022-07-25T03:28:30;19.30;46.20
32614;DHT22;19031;51.400;6.770;2022-07-25T03:30:56;19.30;45.50
32614;DHT22;19031;51.400;6.770;2022-07-25T03:33:22;19.30;45.20
32614;DHT22;19031;51.400;6.770;2022-07-25T03:35:48;19.20;47.70
32614;DHT22;19031;51.400;6.770;2022-07-25T03:38:13;19.20;49.30
32614;DHT22;19031;51.400;6.770;2022-07-25T03:40:39;19.30;47.80
32614;DHT22;19031;51.400;6.770;2022-07-25T03:43:05;19.30;50.30
32614;DHT22;19031;51.400;6.770;2022-07-25T03:45:30;19.30;45.30
32614;DHT22;19031;51.400;6.770;2022-07-25T03:47:56;19.30;49.20
32614;DHT22;19031;51.400;6.770;2022-07-25T03:50:22;19.40;44.20
32614;DHT22;19031;51.400;6.770;2022-07-25T03:52:47;19.40;42.60
32614;DHT22;19031;51.400;6.770;2022-07-25T03:55:13;19.40;36.90
32614;DHT22;19031;51.400;6.770;2022-07-25T03:57:38;19.50;33.60
32614;DHT22;19031;51.400;6.770;2022-07-25T04:00:05;19.60;26.90
32614;DHT22;19031;51.400;6.770;2022-07-25T04:02:32;19.60;25.50
32614;DHT22;19031;51.400;6.770;2022-07-25T04:04:57;19.70;28.40
32614;DHT22;19031;51.400;6.770;2022-07-25T04:07:23;19.70;19.30
32614;DHT22;19031;51.400;6.770;2022-07-25T04:09:48;19.80;17.90
32614;DHT22;19031;51.400;6.770;2022-07-25T04:12:14;19.90;17.80
32614;DHT22;19031;51.400;6.770;2022-07-25T04:14:40;20.00;18.80
32614;DHT22;19031;51.400;6.770;2022-07-25T04:17:05;20.10;13.00
32614;DHT22;19031;51.400;6.770;2022-07-25T04:19:31;20.20;8.00
32614;DHT22;19031;51.400;6.770;2022-07-25T04:21:56;20.20;5.80
32614;DHT22;19031;51.400;6.770;2022-07-25T04:24:22;20.40;4.50
32614;DHT22;19031;51.400;6.770;2022-07-25T04:26:48;20.40;2.70
32614;DHT22;19031;51.400;6.770;2022-07-25T04:29:13;20.50;2.80
32614;DHT22;19031;51.400;6.770;2022-07-25T04:31:39;20.50;1.00
32614;DHT22;19031;51.400;6.770;2022-07-25T04:34:04;20.60;1.00
32614;DHT22;19031;51.400;6.770;2022-07-25T04:36:30;20.70;1.00
32614;DHT22;19031;51.400;6.770;2022-07-25T04:38:56;20.70;1.00
32614;DHT22;19031;51.400;6.770;2022-07-25T04:41:21;20.80;1.00
32614;DHT22;19031;51.400;6.770;2022-07-25T04:43:47;20.90;1.00
32614;DHT22;19031;51.400;6.770;2022-07-25T04:46:20;21.00;1.00
32614;DHT22;19031;51.400;6.770;2022-07-25T04:48:45;20.90;1.00
32614;DHT22;19031;51.400;6.770;2022-07-25T04:51:11;21.00;1.00
32614;DHT22;19031;51.400;6.770;2022-07-25T04:53:37;21.10;1.00
32614;DHT22;19031;51.400;6.770;2022-07-25T04:56:03;21.20;1.00
32614;DHT22;19031;51.400;6.770;2022-07-25T04:58:30;21.20;1.00
32614;DHT22;19031;51.400;6.770;2022-07-25T05:00:56;21.20;1.00
32614;DHT22;19031;51.400;6.770;2022-07-25T05:03:22;21.30;1.00
32614;DHT22;19031;51.400;6.770;2022-07-25T05:05:48;21.40;1.00
32614;DHT22;19031;51.400;6.770;2022-07-25T05:08:13;21.50;1.00
32614;DHT22;19031;51.400;6.770;2022-07-25T05:10:39;21.50;1.00
32614;DHT22;19031;51.400;6.770;2022-07-25T05:13:04;21.60;1.00
32614;DHT22;19031;51.400;6.770;2022-07-25T05:15:30;21.60;1.00
32614;DHT22;19031;51.400;6.770;2022-07-25T05:17:56;21.80;1.00
32614;DHT22;19031;51.400;6.770;2022-07-25T05:20:21;21.80;1.00
32614;DHT22;19031;51.400;6.770;2022-07-25T05:22:47;21.90;1.00
32614;DHT22;19031;51.400;6.770;2022-07-25T05:25:13;22.00;1.00
32614;DHT22;19031;51.400;6.770;2022-07-25T05:27:39;22.00;1.00
32614;DHT22;19031;51.400;6.770;2022-07-25T05:30:06;22.10;1.00
32614;DHT22;19031;51.400;6.770;2022-07-25T05:32:32;22.10;1.00
32614;DHT22;19031;51.400;6.770;2022-07-25T05:34:58;22.20;1.00
32614;DHT22;19031;51.400;6.770;2022-07-25T05:37:24;22.30;1.00
32614;DHT22;19031;51.400;6.770;2022-07-25T05:39:49;22.30;1.00
32614;DHT22;19031;51.400;6.770;2022-07-25T05:42:15;22.30;1.00
32614;DHT22;19031;51.400;6.770;2022-07-25T05:44:40;22.40;1.00
32614;DHT22;19031;51.400;6.770;2022-07-25T05:47:10;22.40;1.00
32614;DHT22;19031;51.400;6.770;2022-07-25T05:49:36;22.40;1.00
32614;DHT22;19031;51.400;6.770;2022-07-25T05:52:02;22.40;1.00
32614;DHT22;19031;51.400;6.770;2022-07-25T05:54:27;22.40;1.00
32614;DHT22;19031;51.400;6.770;2022-07-25T05:56:53;22.40;1.00
32614;DHT22;19031;51.400;6.770;2022-07-25T05:59:19;22.40;1.00
32614;DHT22;19031;51.400;6.770;2022-07-25T06:01:45;22.50;99.90
32614;DHT22;19031;51.400;6.770;2022-07-25T06:04:10;22.40;1.00
32614;DHT22;19031;51.400;6.770;2022-07-25T06:06:36;22.40;1.00
32614;DHT22;19031;51.400;6.770;2022-07-25T06:09:02;22.50;1.00
32614;DHT22;19031;51.400;6.770;2022-07-25T06:11:28;22.50;1.00
32614;DHT22;19031;51.400;6.770;2022-07-25T06:13:55;22.50;1.00
32614;DHT22;19031;51.400;6.770;2022-07-25T06:16:20;22.50;1.00
32614;DHT22;19031;51.400;6.770;2022-07-25T06:18:46;22.60;1.00
32614;DHT22;19031;51.400;6.770;2022-07-25T06:21:12;22.70;99.90
32614;DHT22;19031;51.400;6.770;2022-07-25T06:23:37;22.90;99.90
32614;DHT22;19031;51.400;6.770;2022-07-25T06:26:03;23.00;99.90
32614;DHT22;19031;51.400;6.770;2022-07-25T06:28:28;23.10;99.90
32614;DHT22;19031;51.400;6.770;2022-07-25T06:30:54;23.40;99.90
32614;DHT22;19031;51.400;6.770;2022-07-25T06:33:20;23.50;99.90
32614;DHT22;19031;51.400;6.770;2022-07-25T06:35:45;23.80;99.90
32614;DHT22;19031;51.400;6.770;2022-07-25T06:38:11;24.10;99.90
32614;DHT22;19031;51.400;6.770;2022-07-25T06:40:36;24.30;99.90
32614;DHT22;19031;51.400;6.770;2022-07-25T06:43:02;24.50;99.90
32614;DHT22;19031;51.400;6.770;2022-07-25T06:45:28;24.80;99.90
32614;DHT22;19031;51.400;6.770;2022-07-25T06:47:53;25.00;99.90
32614;DHT22;19031;51.400;6.770;2022-07-25T06:50:19;25.20;99.90
32614;DHT22;19031;51.400;6.770;2022-07-25T06:52:45;25.30;99.90
32614;DHT22;19031;51.400;6.770;2022-07-25T06:55:12;25.40;99.90
32614;DHT22;19031;51.400;6.770;2022-07-25T06:57:38;25.50;99.90
32614;DHT22;19031;51.400;6.770;2022-07-25T07:00:06;25.70;99.90
32614;DHT22;19031;51.400;6.770;2022-07-25T07:02:35;25.90;99.90
32614;DHT22;19031;51.400;6.770;2022-07-25T07:05:01;26.10;48.80
32614;DHT22;19031;51.400;6.770;2022-07-25T07:07:26;26.40;1.00
32614;DHT22;19031;51.400;6.770;2022-07-25T07:09:52;26.70;99.90
32614;DHT22;19031;51.400;6.770;2022-07-25T07:12:17;27.00;99.90
32614;DHT22;19031;51.400;6.770;2022-07-25T07:14:43;27.30;99.90
32614;DHT22;19031;51.400;6.770;2022-07-25T07:17:09;27.50;1.00
32614;DHT22;19031;51.400;6.770;2022-07-25T07:19:36;27.80;99.90
32614;DHT22;19031;51.400;6.770;2022-07-25T07:22:08;27.90;99.90
32614;DHT22;19031;51.400;6.770;2022-07-25T07:24:33;28.10;58.60
32614;DHT22;19031;51.400;6.770;2022-07-25T07:26:59;28.40;99.90
32614;DHT22;19031;51.400;6.770;2022-07-25T07:29:24;28.70;1.00
32614;DHT22;19031;51.400;6.770;2022-07-25T07:31:50;29.00;99.90
32614;DHT22;19031;51.400;6.770;2022-07-25T07:34:16;29.30;86.90
32614;DHT22;19031;51.400;6.770;2022-07-25T07:36:41;29.60;99.90
32614;DHT22;19031;51.400;6.770;2022-07-25T07:39:07;29.80;1.00
32614;DHT22;19031;51.400;6.770;2022-07-25T07:41:33;30.10;1.00
32614;DHT22;19031;51.400;6.770;2022-07-25T07:43:59;30.30;99.90
32614;DHT22;19031;51.400;6.770;2022-07-25T07:46:24;30.50;99.90
32614;DHT22;19031;51.400;6.770;2022-07-25T07:48:50;30.80;99.90
32614;DHT22;19031;51.400;6.770;2022-07-25T07:51:15;30.80;1.00
32614;DHT22;19031;51.400;6.770;2022-07-25T07:53:41;30.80;99.90
32614;DHT22;19031;51.400;6.770;2022-07-25T07:56:25;30.60;99.90
32614;DHT22;19031;51.400;6.770;2022-07-25T07:58:51;30.30;99.90
32614;DHT22;19031;51.400;6.770;2022-07-25T08:01:16;30.10;99.90
32614;DHT22;19031;51.400;6.770;2022-07-25T08:03:42;30.10;99.90
32614;DHT22;19031;51.400;6.770;2022-07-25T08:06:07;29.90;99.90
32614;DHT22;19031;51.400;6.770;2022-07-25T08:08:33;29.70;81.40
32614;DHT22;19031;51.400;6.770;2022-07-25T08:10:59;29.60;99.90
32614;DHT22;19031;51.400;6.770;2022-07-25T08:13:27;29.50;99.90
32614;DHT22;19031;51.400;6.770;2022-07-25T08:15:55;29.40;99.90
32614;DHT22;19031;51.400;6.770;2022-07-25T08:18:23;29.60;99.90
32614;DHT22;19031;51.400;6.770;2022-07-25T08:20:49;29.90;99.90
32614;DHT22;19031;51.400;6.770;2022-07-25T08:23:15;29.80;99.90
32614;DHT22;19031;51.400;6.770;2022-07-25T08:25:42;30.00;99.90
32614;DHT22;19031;51.400;6.770;2022-07-25T08:28:08;29.80;99.90
32614;DHT22;19031;51.400;6.770;2022-07-25T08:30:36;29.60;99.90
32614;DHT22;19031;51.400;6.770;2022-07-25T08:33:05;29.70;99.90
32614;DHT22;19031;51.400;6.770;2022-07-25T08:35:32;29.70;99.90
32614;DHT22;19031;51.400;6.770;2022-07-25T08:37:58;29.70;99.90
32614;DHT22;19031;51.400;6.770;2022-07-25T08:40:26;29.90;99.90
32614;DHT22;19031;51.400;6.770;2022-07-25T08:42:52;29.70;99.90
32614;DHT22;19031;51.400;6.770;2022-07-25T08:45:20;29.50;99.90
32614;DHT22;19031;51.400;6.770;2022-07-25T08:47:48;29.40;99.90
32614;DHT22;19031;51.400;6.770;2022-07-25T08:50:20;29.00;99.90
32614;DHT22;19031;51.400;6.770;2022-07-25T08:52:47;29.00;2.90
32614;DHT22;19031;51.400;6.770;2022-07-25T08:55:18;28.80;1.00
32614;DHT22;19031;51.400;6.770;2022-07-25T08:57:48;28.90;33.20
32614;DHT22;19031;51.400;6.770;2022-07-25T09:00:17;28.90;80.80
32614;DHT22;19031;51.400;6.770;2022-07-25T09:02:53;29.30;1.00
32614;DHT22;19031;51.400;6.770;2022-07-25T09:05:23;29.60;84.40
32614;DHT22;19031;51.400;6.770;2022-07-25T09:07:51;30.00;1.00
32614;DHT22;19031;51.400;6.770;2022-07-25T09:10:21;30.30;99.90
32614;DHT22;19031;51.400;6.770;2022-07-25T09:15:26;31.20;99.90
32614;DHT22;19031;51.400;6.770;2022-07-25T09:17:52;31.30;13.00
32614;DHT22;19031;51.400;6.770;2022-07-25T09:20:18;31.50;1.00
32614;DHT22;19031;51.400;6.770;2022-07-25T09:22:46;31.80;99.90
32614;DHT22;19031;51.400;6.770;2022-07-25T09:25:27;31.50;1.00
32614;DHT22;19031;51.400;6.770;2022-07-25T09:27:55;31.60;99.90
32614;DHT22;19031;51.400;6.770;2022-07-25T09:30:21;31.60;99.90
32614;DHT22;19031;51.400;6.770;2022-07-25T09:32:47;32.10;99.90
32614;DHT22;19031;51.400;6.770;2022-07-25T09:35:34;32.40;99.90
32614;DHT22;19031;51.400;6.770;2022-07-25T09:38:14;32.50;99.90
32614;DHT22;19031;51.400;6.770;2022-07-25T09:40:52;32.30;56.30
32614;DHT22;19031;51.400;6.770;2022-07-25T09:43:17;32.30;32.10
32614;DHT22;19031;51.400;6.770;2022-07-25T09:45:50;32.30;59.10
32614;DHT22;19031;51.400;6.770;2022-07-25T09:48:18;32.10;30.00
32614;DHT22;19031;51.400;6.770;2022-07-25T09:50:45;31.90;32.70
32614;DHT22;19031;51.400;6.770;2022-07-25T09:53:11;31.70;20.20
32614;DHT22;19031;51.400;6.770;2022-07-25T09:55:37;31.30;1.00
32614;DHT22;19031;51.400;6.770;2022-07-25T09:58:03;30.60;17.20
32614;DHT22;19031;51.400;6.770;2022-07-25T10:00:30;30.50;88.20
32614;DHT22;19031;51.400;6.770;2022-07-25T10:03:17;30.30;99.90
32614;DHT22;19031;51.400;6.770;2022-07-25T10:08:16;29.60;99.90
32614;DHT22;19031;51.400;6.770;2022-07-25T10:10:42;29.30;99.90
32614;DHT22;19031;51.400;6.770;2022-07-25T10:13:13;29.10;99.90
32614;DHT22;19031;51.400;6.770;2022-07-25T10:15:51;29.30;99.90
32614;DHT22;19031;51.400;6.770;2022-07-25T10:18:25;29.30;99.90
32614;DHT22;19031;51.400;6.770;2022-07-25T10:20:54;29.60;99.90
32614;DHT22;19031;51.400;6.770;2022-07-25T10:23:25;29.90;99.90
32614;DHT22;19031;51.400;6.770;2022-07-25T10:26:08;30.20;99.90
32614;DHT22;19031;51.400;6.770;2022-07-25T10:28:46;30.40;99.90
32614;DHT22;19031;51.400;6.770;2022-07-25T10:31:18;30.60;92.00
32614;DHT22;19031;51.400;6.770;2022-07-25T10:33:48;30.90;99.90
32614;DHT22;19031;51.400;6.770;2022-07-25T10:36:15;31.10;1.00
32614;DHT22;19031;51.400;6.770;2022-07-25T10:38:43;31.10;26.60
32614;DHT22;19031;51.400;6.770;2022-07-25T10:41:14;31.40;1.00
32614;DHT22;19031;51.400;6.770;2022-07-25T10:43:43;31.20;1.00
32614;DHT22;19031;51.400;6.770;2022-07-25T10:46:28;31.40;1.00
32614;DHT22;19031;51.400;6.770;2022-07-25T10:49:00;31.90;99.90
32614;DHT22;19031;51.400;6.770;2022-07-25T10:51:31;32.30;1.00
32614;DHT22;19031;51.400;6.770;2022-07-25T10:53:57;32.80;99.90
32614;DHT22;19031;51.400;6.770;2022-07-25T10:56:25;33.30;99.90
32614;DHT22;19031;51.400;6.770;2022-07-25T10:59:00;33.40;99.90
32614;DHT22;19031;51.400;6.770;2022-07-25T11:01:31;33.10;99.90
32614;DHT22;19031;51.400;6.770;2022-07-25T11:03:59;33.10;99.90
32614;DHT22;19031;51.400;6.770;2022-07-25T11:06:34;33.50;99.90
32614;DHT22;19031;51.400;6.770;2022-07-25T11:09:54;33.80;99.90
32614;DHT22;19031;51.400;6.770;2022-07-25T11:11:49;33.10;99.90
32614;DHT22;19031;51.400;6.770;2022-07-25T11:14:22;32.90;98.60
32614;DHT22;19031;51.400;6.770;2022-07-25T11:16:50;32.60;99.90
32614;DHT22;19031;51.400;6.770;2022-07-25T11:19:24;32.70;99.90
32614;DHT22;19031;51.400;6.770;2022-07-25T11:21:52;32.80;99.90
32614;DHT22;19031;51.400;6.770;2022-07-25T11:24:20;32.70;99.90
32614;DHT22;19031;51.400;6.770;2022-07-25T11:26:51;32.70;99.90
32614;DHT22;19031;51.400;6.770;2022-07-25T11:29:26;32.70;99.90
32614;DHT22;19031;51.400;6.770;2022-07-25T11:31:53;32.80;99.90
32614;DHT22;19031;51.400;6.770;2022-07-25T11:34:22;33.10;99.90
32614;DHT22;19031;51.400;6.770;2022-07-25T11:36:50;33.00;99.90
32614;DHT22;19031;51.400;6.770;2022-07-25T11:39:16;32.80;99.90
32614;DHT22;19031;51.400;6.770;2022-07-25T11:41:42;32.40;99.90
32614;DHT22;19031;51.400;6.770;2022-07-25T11:44:08;32.40;99.90
32614;DHT22;19031;51.400;6.770;2022-07-25T11:46:41;32.30;99.90
32614;DHT22;19031;51.400;6.770;2022-07-25T11:49:08;32.50;99.90
32614;DHT22;19031;51.400;6.770;2022-07-25T11:51:37;32.40;99.90
32614;DHT22;19031;51.400;6.770;2022-07-25T11:54:08;32.20;99.90
32614;DHT22;19031;51.400;6.770;2022-07-25T11:56:38;32.40;99.90
32614;DHT22;19031;51.400;6.770;2022-07-25T11:59:04;32.40;99.90
32614;DHT22;19031;51.400;6.770;2022-07-25T12:01:35;32.40;99.90
32614;DHT22;19031;51.400;6.770;2022-07-25T12:04:18;32.20;99.90
32614;DHT22;19031;51.400;6.770;2022-07-25T12:06:46;31.60;99.90
32614;DHT22;19031;51.400;6.770;2022-07-25T12:09:17;31.30;99.90
32614;DHT22;19031;51.400;6.770;2022-07-25T12:11:43;31.20;99.90
32614;DHT22;19031;51.400;6.770;2022-07-25T12:14:09;30.80;99.90
32614;DHT22;19031;51.400;6.770;2022-07-25T12:16:35;30.70;99.90
32614;DHT22;19031;51.400;6.770;2022-07-25T12:19:02;30.80;99.90
32614;DHT22;19031;51.400;6.770;2022-07-25T12:21:28;30.60;99.90
32614;DHT22;19031;51.400;6.770;2022-07-25T12:23:54;30.60;99.90
32614;DHT22;19031;51.400;6.770;2022-07-25T12:26:20;30.60;1.00
32614;DHT22;19031;51.400;6.770;2022-07-25T12:28:45;30.70;1.00
32614;DHT22;19031;51.400;6.770;2022-07-25T12:31:11;30.60;1.00
32614;DHT22;19031;51.400;6.770;2022-07-25T12:33:37;30.80;1.00
32614;DHT22;19031;51.400;6.770;2022-07-25T12:36:03;30.20;1.00
32614;DHT22;19031;51.400;6.770;2022-07-25T12:38:29;30.30;14.10
32614;DHT22;19031;51.400;6.770;2022-07-25T12:40:55;30.30;83.40
32614;DHT22;19031;51.400;6.770;2022-07-25T12:43:21;30.30;94.70
32614;DHT22;19031;51.400;6.770;2022-07-25T12:45:47;30.20;99.90
32614;DHT22;19031;51.400;6.770;2022-07-25T12:48:13;30.10;99.90
32614;DHT22;19031;51.400;6.770;2022-07-25T12:50:42;30.10;99.90
32614;DHT22;19031;51.400;6.770;2022-07-25T12:53:08;30.10;99.90
32614;DHT22;19031;51.400;6.770;2022-07-25T12:55:34;30.20;99.90
32614;DHT22;19031;51.400;6.770;2022-07-25T12:58:00;30.00;99.90
32614;DHT22;19031;51.400;6.770;2022-07-25T13:00:26;29.80;66.90
32614;DHT22;19031;51.400;6.770;2022-07-25T13:02:52;30.10;1.00
32614;DHT22;19031;51.400;6.770;2022-07-25T13:05:21;30.40;1.00
32614;DHT22;19031;51.400;6.770;2022-07-25T13:07:47;30.60;99.90
32614;DHT22;19031;51.400;6.770;2022-07-25T13:10:13;30.50;99.90
32614;DHT22;19031;51.400;6.770;2022-07-25T13:12:39;30.30;99.90
32614;DHT22;19031;51.400;6.770;2022-07-25T13:15:06;30.30;99.90
32614;DHT22;19031;51.400;6.770;2022-07-25T13:17:32;30.30;99.90
32614;DHT22;19031;51.400;6.770;2022-07-25T13:19:57;30.20;99.90
32614;DHT22;19031;51.400;6.770;2022-07-25T13:22:24;30.30;99.90
32614;DHT22;19031;51.400;6.770;2022-07-25T13:24:50;30.70;99.90
32614;DHT22;19031;51.400;6.770;2022-07-25T13:27:20;30.80;99.90
32614;DHT22;19031;51.400;6.770;2022-07-25T13:29:46;30.80;81.60
32614;DHT22;19031;51.400;6.770;2022-07-25T13:32:12;30.80;39.10
32614;DHT22;19031;51.400;6.770;2022-07-25T13:34:38;30.60;45.70
32614;DHT22;19031;51.400;6.770;2022-07-25T13:37:03;30.70;55.60
32614;DHT22;19031;51.400;6.770;2022-07-25T13:39:30;30.80;2.10
32614;DHT22;19031;51.400;6.770;2022-07-25T13:41:55;30.60;1.00
32614;DHT22;19031;51.400;6.770;2022-07-25T13:44:21;30.80;33.60
32614;DHT22;19031;51.400;6.770;2022-07-25T13:46:47;30.90;1.00
32614;DHT22;19031;51.400;6.770;2022-07-25T13:49:16;30.60;1.00
32614;DHT22;19031;51.400;6.770;2022-07-25T13:51:42;30.30;1.00
32614;DHT22;19031;51.400;6.770;2022-07-25T13:54:10;30.00;24.20
32614;DHT22;19031;51.400;6.770;2022-07-25T13:56:36;29.80;30.30
32614;DHT22;19031;51.400;6.770;2022-07-25T13:59:02;29.60;99.90
32614;DHT22;19031;51.400;6.770;2022-07-25T14:01:28;29.70;99.90
32614;DHT22;19031;51.400;6.770;2022-07-25T14:03:54;29.50;94.10
32614;DHT22;19031;51.400;6.770;2022-07-25T14:06:20;29.20;99.90
32614;DHT22;19031;51.400;6.770;2022-07-25T14:08:46;29.30;99.90
32614;DHT22;19031;51.400;6.770;2022-07-25T14:11:12;29.20;99.90
32614;DHT22;19031;51.400;6.770;2022-07-25T14:13:37;29.00;99.90
32614;DHT22;19031;51.400;6.770;2022-07-25T14:16:03;28.80;99.90
32614;DHT22;19031;51.400;6.770;2022-07-25T14:18:29;28.60;99.90
32614;DHT22;19031;51.400;6.770;2022-07-25T14:20:57;28.50;1.00
32614;DHT22;19031;51.400;6.770;2022-07-25T14:23:23;28.20;29.40
32614;DHT22;19031;51.400;6.770;2022-07-25T14:25:48;28.30;99.90
32614;DHT22;19031;51.400;6.770;2022-07-25T14:28:14;28.30;99.90
32614;DHT22;19031;51.400;6.770;2022-07-25T14:30:40;28.40;99.90
32614;DHT22;19031;51.400;6.770;2022-07-25T14:33:06;28.40;99.90
32614;DHT22;19031;51.400;6.770;2022-07-25T14:35:32;28.50;99.90
32614;DHT22;19031;51.400;6.770;2022-07-25T14:37:58;28.40;99.90
32614;DHT22;19031;51.400;6.770;2022-07-25T14:40:24;28.40;99.90
32614;DHT22;19031;51.400;6.770;2022-07-25T14:42:49;28.00;99.90
32614;DHT22;19031;51.400;6.770;2022-07-25T14:45:15;27.90;99.90
32614;DHT22;19031;51.400;6.770;2022-07-25T14:47:43;28.00;99.90
32614;DHT22;19031;51.400;6.770;2022-07-25T14:50:09;28.00;99.90
32614;DHT22;19031;51.400;6.770;2022-07-25T14:52:35;28.10;1.00
32614;DHT22;19031;51.400;6.770;2022-07-25T14:55:01;27.90;1.00
32614;DHT22;19031;51.400;6.770;2022-07-25T14:57:26;27.80;99.90
32614;DHT22;19031;51.400;6.770;2022-07-25T14:59:52;27.80;1.00
32614;DHT22;19031;51.400;6.770;2022-07-25T15:02:18;27.60;99.90
32614;DHT22;19031;51.400;6.770;2022-07-25T15:04:43;27.40;99.90
32614;DHT22;19031;51.400;6.770;2022-07-25T15:07:09;27.30;1.00
32614;DHT22;19031;51.400;6.770;2022-07-25T15:09:35;27.20;64.90
32614;DHT22;19031;51.400;6.770;2022-07-25T15:12:00;27.20;26.30
32614;DHT22;19031;51.400;6.770;2022-07-25T15:14:26;27.10;99.90
32614;DHT22;19031;51.400;6.770;2022-07-25T15:16:52;27.10;99.90
32614;DHT22;19031;51.400;6.770;2022-07-25T15:19:17;26.90;99.90
32614;DHT22;19031;51.400;6.770;2022-07-25T15:21:43;26.70;99.90
32614;DHT22;19031;51.400;6.770;2022-07-25T15:24:09;26.60;99.90
32614;DHT22;19031;51.400;6.770;2022-07-25T15:26:35;26.10;13.10
32614;DHT22;19031;51.400;6.770;2022-07-25T15:29:01;26.30;99.90
32614;DHT22;19031;51.400;6.770;2022-07-25T15:31:27;26.70;99.90
32614;DHT22;19031;51.400;6.770;2022-07-25T15:33:52;27.10;99.90
32614;DHT22;19031;51.400;6.770;2022-07-25T15:36:18;27.20;1.00
32614;DHT22;19031;51.400;6.770;2022-07-25T15:38:44;27.30;99.90